Time;durP1;ratioP1;P1;durP2;ratioP2;P2;SDS_P1;SDS_P2;PMS_P1;PMS_P2;Temp;Humidity;BMP_temperature;BMP_pressure;BME280_temperature;BME280_humidity;BME280_pressure;Samples;Min_cycle;Max_cycle;Signal;HPM_P1;HPM_P2
2022/06/08 00:00:12;;;;;;;2.40;1.47;;;15.90;99.90;;;;;;5033717;28;20237;-60
2022/06/08 00:02:43;;;;;;;1.13;0.87;;;15.80;99.90;;;;;;5033817;28;20206;-60
2022/06/08 00:05:10;;;;;;;1.40;1.07;;;15.80;99.90;;;;;;5033732;28;20202;-60
2022/06/08 00:07:37;;;;;;;3.93;1.27;;;15.80;99.90;;;;;;5033615;28;20700;-60
2022/06/08 00:10:06;;;;;;;1.57;1.23;;;15.80;99.90;;;;;;5033529;28;20241;-60
2022/06/08 00:12:32;;;;;;;2.70;1.23;;;15.80;99.90;;;;;;5033581;28;20202;-60
2022/06/08 00:14:59;;;;;;;2.73;1.33;;;15.80;99.90;;;;;;5033093;28;20218;-60
2022/06/08 00:17:27;;;;;;;1.80;1.40;;;15.80;99.90;;;;;;5033232;28;20210;-60
2022/06/08 00:19:55;;;;;;;1.97;1.63;;;15.80;99.90;;;;;;5033061;28;20210;-60
2022/06/08 00:22:22;;;;;;;1.93;1.20;;;15.80;99.90;;;;;;5033369;28;20297;-59
2022/06/08 00:24:49;;;;;;;1.93;1.40;;;15.80;99.90;;;;;;5033061;28;20289;-60
2022/06/08 00:27:15;;;;;;;2.20;1.30;;;15.80;99.90;;;;;;5033185;28;20210;-60
2022/06/08 00:29:42;;;;;;;2.70;1.23;;;15.80;99.90;;;;;;5033084;28;20674;-60
2022/06/08 00:32:09;;;;;;;2.67;1.30;;;15.80;99.90;;;;;;5032792;28;20249;-60
2022/06/08 00:34:36;;;;;;;1.30;0.90;;;15.70;99.90;;;;;;5032760;28;20234;-59
2022/06/08 00:37:05;;;;;;;2.57;1.13;;;15.80;99.90;;;;;;5033027;28;20213;-60
2022/06/08 00:39:31;;;;;;;2.90;1.47;;;15.80;99.90;;;;;;5032981;28;20209;-60
2022/06/08 00:42:01;;;;;;;1.77;1.37;;;15.70;99.90;;;;;;5032926;28;20230;-60
2022/06/08 00:44:32;;;;;;;1.43;1.27;;;15.70;99.90;;;;;;5032544;28;20198;-60
2022/06/08 00:47:00;;;;;;;6.23;1.40;;;15.70;99.90;;;;;;5032943;28;20271;-60
2022/06/08 00:49:32;;;;;;;4.50;1.53;;;15.70;99.90;;;;;;5032780;28;20327;-60
2022/06/08 00:52:00;;;;;;;1.43;1.20;;;15.70;99.90;;;;;;5032626;28;20645;-59
2022/06/08 00:54:33;;;;;;;2.47;1.23;;;15.70;99.90;;;;;;5032359;28;20312;-60
2022/06/08 00:57:05;;;;;;;2.20;1.70;;;15.60;99.90;;;;;;5032175;28;20214;-60
2022/06/08 00:59:34;;;;;;;4.37;1.50;;;15.70;99.90;;;;;;5032605;28;20214;-61
2022/06/08 01:02:01;;;;;;;3.83;1.57;;;15.70;99.90;;;;;;5032451;28;20329;-61
2022/06/08 01:04:31;;;;;;;2.20;1.23;;;15.80;99.90;;;;;;5032473;28;20248;-60
2022/06/08 01:07:00;;;;;;;2.03;1.40;;;15.80;99.90;;;;;;5032536;28;20213;-60
2022/06/08 01:09:31;;;;;;;1.67;1.33;;;15.80;99.90;;;;;;5032286;28;20256;-59
2022/06/08 01:12:00;;;;;;;1.70;1.50;;;15.80;99.90;;;;;;5032360;28;20242;-61
2022/06/08 01:14:28;;;;;;;1.90;1.23;;;15.80;99.90;;;;;;5032539;28;20226;-60
2022/06/08 01:16:59;;;;;;;4.60;1.60;;;15.80;99.90;;;;;;5032892;28;20206;-60
2022/06/08 01:19:27;;;;;;;2.87;1.57;;;15.90;99.90;;;;;;5032390;28;20670;-60
2022/06/08 01:21:59;;;;;;;2.50;1.52;;;16.00;99.90;;;;;;5032289;28;20229;-60
2022/06/08 01:24:27;;;;;;;2.23;1.40;;;16.20;99.90;;;;;;5032083;28;20221;-61
2022/06/08 01:27:10;;;;;;;1.43;1.10;;;16.30;99.90;;;;;;5032423;28;20293;-61
2022/06/08 01:29:41;;;;;;;1.83;1.50;;;16.30;99.90;;;;;;5032080;28;20570;-62
2022/06/08 01:32:17;;;;;;;2.00;1.40;;;16.40;99.90;;;;;;5031956;28;20658;-60
2022/06/08 01:34:55;;;;;;;1.83;1.33;;;16.50;99.90;;;;;;5031860;28;20233;-61
2022/06/08 01:37:32;;;;;;;1.50;1.03;;;16.50;99.90;;;;;;5032289;28;20201;-61
2022/06/08 01:40:16;;;;;;;1.27;1.00;;;16.50;99.90;;;;;;5032129;28;20202;-60
2022/06/08 01:42:57;;;;;;;1.50;1.10;;;16.50;99.90;;;;;;5032401;28;20597;-61
2022/06/08 01:45:34;;;;;;;2.13;1.27;;;16.60;99.90;;;;;;5032212;28;20558;-61
2022/06/08 01:48:14;;;;;;;2.93;1.37;;;16.60;99.90;;;;;;5032009;28;20206;-61
2022/06/08 01:50:58;;;;;;;3.20;1.40;;;16.50;99.90;;;;;;5031931;28;20225;-61
2022/06/08 01:53:38;;;;;;;1.57;1.43;;;16.40;99.90;;;;;;5031598;28;20217;-61
2022/06/08 01:56:15;;;;;;;1.40;1.20;;;16.50;99.90;;;;;;5031903;28;20280;-61
2022/06/08 01:58:48;;;;;;;1.98;1.33;;;16.40;99.90;;;;;;5031988;28;20202;-61
2022/06/08 02:01:19;;;;;;;1.70;1.30;;;16.30;99.90;;;;;;5031881;28;20241;-61
2022/06/08 02:03:54;;;;;;;2.55;1.20;;;16.30;99.90;;;;;;5031374;28;20614;-61
2022/06/08 02:06:25;;;;;;;2.03;1.40;;;16.30;99.90;;;;;;5031654;28;20206;-61
2022/06/08 02:08:59;;;;;;;4.53;1.70;;;16.20;99.90;;;;;;5033514;28;20206;-61
2022/06/08 02:11:35;;;;;;;1.87;1.37;;;16.20;99.90;;;;;;5035829;28;20234;-61
2022/06/08 02:14:07;;;;;;;4.27;1.70;;;16.20;99.90;;;;;;5035520;28;20279;-60
2022/06/08 02:16:38;;;;;;;2.87;1.53;;;16.20;99.90;;;;;;5035949;28;20229;-60
2022/06/08 02:19:07;;;;;;;2.90;1.50;;;16.30;99.90;;;;;;5035881;28;20213;-61
2022/06/08 02:21:41;;;;;;;1.20;1.10;;;16.20;99.90;;;;;;5035574;28;20222;-61
2022/06/08 02:24:15;;;;;;;2.50;1.40;;;16.10;99.90;;;;;;5035410;28;20607;-61
2022/06/08 02:26:45;;;;;;;1.57;1.20;;;16.10;99.90;;;;;;5035521;28;20257;-61
2022/06/08 02:29:16;;;;;;;1.83;1.37;;;15.90;99.90;;;;;;5035685;28;20364;-61
2022/06/08 02:31:48;;;;;;;2.50;1.40;;;15.90;99.90;;;;;;5035236;28;20234;-61
2022/06/08 02:34:31;;;;;;;3.40;1.70;;;15.90;99.90;;;;;;5035188;28;20674;-60
2022/06/08 02:37:03;;;;;;;1.60;1.33;;;15.90;99.90;;;;;;5035274;28;20210;-60
2022/06/08 02:39:35;;;;;;;2.60;1.43;;;15.90;99.90;;;;;;5035551;28;20217;-61
2022/06/08 02:42:06;;;;;;;5.07;1.30;;;15.90;99.90;;;;;;5035424;28;20237;-60
2022/06/08 02:44:35;;;;;;;3.40;1.47;;;15.90;99.90;;;;;;5035149;28;20214;-61
2022/06/08 02:47:05;;;;;;;2.33;1.67;;;15.80;99.90;;;;;;5034997;28;20692;-60
2022/06/08 02:49:33;;;;;;;2.80;2.00;;;15.80;99.90;;;;;;5034910;28;20627;-61
2022/06/08 02:52:04;;;;;;;2.63;1.37;;;15.80;99.90;;;;;;5034787;28;20771;-60
2022/06/08 02:54:32;;;;;;;2.20;1.67;;;15.70;99.90;;;;;;5034986;28;20214;-61
2022/06/08 02:57:08;;;;;;;4.27;1.60;;;15.50;99.90;;;;;;5034897;28;20288;-61
2022/06/08 02:59:43;;;;;;;4.87;1.47;;;15.30;99.90;;;;;;5034975;28;20292;-61
2022/06/08 03:02:15;;;;;;;3.40;1.50;;;15.20;99.90;;;;;;5034603;28;20225;-62
2022/06/08 03:04:47;;;;;;;6.53;1.70;;;15.10;99.90;;;;;;5034964;28;20213;-61
2022/06/08 03:07:18;;;;;;;5.33;1.70;;;15.00;99.90;;;;;;5035222;28;20207;-61
2022/06/08 03:09:48;;;;;;;5.30;1.67;;;15.00;99.90;;;;;;5035084;28;20285;-60
2022/06/08 03:12:21;;;;;;;3.47;1.60;;;14.90;99.90;;;;;;5034980;28;20264;-61
2022/06/08 03:14:48;;;;;;;1.50;1.40;;;14.80;99.90;;;;;;5034855;28;20210;-60
2022/06/08 03:17:18;;;;;;;2.83;1.40;;;14.80;99.90;;;;;;5035143;28;20206;-59
2022/06/08 03:19:45;;;;;;;2.67;1.40;;;14.70;99.90;;;;;;5034462;28;20210;-60
2022/06/08 03:22:14;;;;;;;3.23;1.40;;;14.50;99.90;;;;;;5034557;28;20660;-60
2022/06/08 03:24:41;;;;;;;4.57;1.57;;;14.50;99.90;;;;;;5034301;28;20678;-60
2022/06/08 03:27:10;;;;;;;3.23;1.33;;;14.50;99.90;;;;;;5034730;28;20213;-60
2022/06/08 03:29:37;;;;;;;2.30;1.60;;;14.40;99.90;;;;;;5034668;28;20720;-60
2022/06/08 03:32:05;;;;;;;2.13;1.30;;;14.30;99.90;;;;;;5034526;28;20238;-61
2022/06/08 03:34:33;;;;;;;2.97;1.43;;;14.30;99.90;;;;;;5034437;28;20260;-60
2022/06/08 03:36:59;;;;;;;3.73;1.60;;;14.10;99.90;;;;;;5034601;28;20276;-60
2022/06/08 03:39:26;;;;;;;1.83;1.50;;;14.20;99.90;;;;;;5034400;28;20348;-61
2022/06/08 03:41:53;;;;;;;3.50;1.93;;;14.20;99.90;;;;;;5034100;28;20222;-60
2022/06/08 03:44:21;;;;;;;3.67;1.97;;;14.20;99.90;;;;;;5034400;28;20217;-61
2022/06/08 03:46:52;;;;;;;3.10;1.67;;;14.30;99.90;;;;;;5034378;28;20210;-60
2022/06/08 03:49:20;;;;;;;4.53;1.80;;;14.40;99.90;;;;;;5034137;28;20665;-61
2022/06/08 03:51:47;;;;;;;3.10;1.70;;;14.50;99.90;;;;;;5034072;28;20230;-61
2022/06/08 03:54:17;;;;;;;2.83;1.90;;;14.60;99.90;;;;;;5033697;28;20217;-61
2022/06/08 03:56:46;;;;;;;2.87;1.50;;;14.60;99.90;;;;;;5033742;28;20595;-60
2022/06/08 03:59:14;;;;;;;4.03;1.60;;;14.70;99.90;;;;;;5033791;28;20211;-61
2022/06/08 04:01:43;;;;;;;5.63;1.90;;;14.90;99.90;;;;;;5033768;28;20226;-61
2022/06/08 04:04:11;;;;;;;2.87;1.67;;;15.00;99.90;;;;;;5033549;28;20210;-61
2022/06/08 04:06:37;;;;;;;2.37;1.40;;;15.20;99.90;;;;;;5033761;28;20581;-61
2022/06/08 04:09:05;;;;;;;1.57;1.30;;;15.40;99.90;;;;;;5033435;28;20717;-61
2022/06/08 04:11:32;;;;;;;3.50;1.47;;;15.50;99.90;;;;;;5033623;28;20230;-61
2022/06/08 04:14:00;;;;;;;3.77;2.17;;;15.70;99.90;;;;;;5033272;28;20210;-61
2022/06/08 04:16:27;;;;;;;1.80;1.33;;;15.90;99.90;;;;;;5033237;28;20722;-61
2022/06/08 04:18:55;;;;;;;2.07;1.17;;;16.10;99.90;;;;;;5033417;28;20214;-60
2022/06/08 04:21:22;;;;;;;3.60;1.50;;;16.20;99.90;;;;;;5033271;28;20222;-60
2022/06/08 04:23:49;;;;;;;2.53;1.43;;;16.30;99.90;;;;;;5033320;28;20210;-60
2022/06/08 04:26:17;;;;;;;5.20;1.67;;;16.40;99.90;;;;;;5033252;28;20198;-60
2022/06/08 04:28:45;;;;;;;3.63;1.30;;;16.60;99.90;;;;;;5033233;28;20210;-61
2022/06/08 04:31:12;;;;;;;2.07;1.30;;;16.70;99.90;;;;;;5032875;28;20321;-61
2022/06/08 04:33:39;;;;;;;3.38;1.88;;;16.80;99.90;;;;;;5032010;28;20720;-61
2022/06/08 04:36:08;;;;;;;1.73;1.40;;;17.00;99.90;;;;;;5032876;28;20740;-60
2022/06/08 04:38:35;;;;;;;2.07;1.40;;;17.00;99.90;;;;;;5033255;28;20210;-61
2022/06/08 04:41:03;;;;;;;6.25;1.98;;;17.20;99.90;;;;;;5033029;28;20261;-61
2022/06/08 04:43:30;;;;;;;2.42;1.40;;;17.50;99.90;;;;;;5032816;28;20206;-61
2022/06/08 04:45:57;;;;;;;4.65;2.13;;;17.80;99.90;;;;;;5032737;28;20253;-61
2022/06/08 04:48:24;;;;;;;3.90;1.70;;;18.30;99.90;;;;;;5032617;28;20202;-60
2022/06/08 04:50:50;;;;;;;3.08;1.50;;;18.90;99.90;;;;;;5033015;28;20225;-61
2022/06/08 04:53:25;;;;;;;3.28;1.33;;;19.60;99.90;;;;;;5089102;28;21142;-60
2022/06/08 04:55:52;;;;;;;2.63;1.05;;;20.30;99.90;;;;;;5089294;28;20204;-60
2022/06/08 04:58:20;;;;;;;1.98;1.20;;;20.90;99.90;;;;;;5089596;28;20204;-60
2022/06/08 05:00:47;;;;;;;2.22;1.20;;;21.40;99.90;;;;;;5089346;28;20232;-60
2022/06/08 05:03:14;;;;;;;4.05;1.52;;;21.70;99.90;;;;;;5089430;28;20245;-61
2022/06/08 05:05:41;;;;;;;3.42;1.52;;;21.80;99.90;;;;;;5086272;22;20233;-57
2022/06/08 05:08:09;;;;;;;2.33;1.40;;;21.80;99.90;;;;;;5069316;28;20597;-58
2022/06/08 05:10:38;;;;;;;6.07;2.00;;;21.70;99.90;;;;;;5068937;28;20679;-58
2022/06/08 05:13:06;;;;;;;4.45;2.13;;;21.60;99.90;;;;;;5068684;28;20225;-58
2022/06/08 05:15:36;;;;;;;4.18;2.45;;;21.60;99.90;;;;;;5068679;28;20229;-58
2022/06/08 05:18:04;;;;;;;2.95;1.25;;;21.70;99.90;;;;;;5069317;28;20231;-58
2022/06/08 05:20:32;;;;;;;5.05;1.75;;;22.00;99.90;;;;;;5068952;28;20205;-58
2022/06/08 05:22:59;;;;;;;3.95;1.33;;;22.30;99.90;;;;;;5068740;28;20201;-58
2022/06/08 05:25:28;;;;;;;4.50;1.35;;;22.80;99.90;;;;;;5068486;28;20229;-58
2022/06/08 05:27:57;;;;;;;3.85;1.20;;;23.30;99.90;;;;;;5068477;28;20208;-58
2022/06/08 05:30:25;;;;;;;1.50;1.05;;;23.80;99.90;;;;;;5068823;28;20209;-58
2022/06/08 05:32:52;;;;;;;2.60;1.23;;;24.50;99.90;;;;;;5068484;28;20236;-58
2022/06/08 05:35:20;;;;;;;3.92;1.10;;;25.00;99.90;;;;;;5068230;28;20700;-58
2022/06/08 05:37:47;;;;;;;3.45;1.08;;;26.00;99.90;;;;;;5068919;28;20216;-60
2022/06/08 05:40:14;;;;;;;4.82;1.58;;;26.90;98.30;;;;;;5068469;28;20219;-58
2022/06/08 05:42:41;;;;;;;2.75;1.30;;;27.80;96.20;;;;;;5068090;28;20712;-58
2022/06/08 05:45:16;;;;;;;7.60;1.60;;;29.00;93.40;;;;;;5068284;28;20228;-58
2022/06/08 05:47:43;;;;;;;6.18;1.10;;;29.90;89.90;;;;;;5068574;28;20265;-60
2022/06/08 05:50:10;;;;;;;2.10;1.00;;;30.70;84.40;;;;;;5068468;28;20209;-59
2022/06/08 05:52:37;;;;;;;4.43;1.17;;;31.70;79.30;;;;;;5068023;28;20613;-58
2022/06/08 05:55:06;;;;;;;3.92;0.90;;;33.00;73.20;;;;;;5067785;28;20232;-59
2022/06/08 05:57:32;;;;;;;2.88;1.05;;;34.20;66.10;;;;;;5068136;28;20205;-59
2022/06/08 05:59:59;;;;;;;2.75;1.27;;;35.00;63.10;;;;;;5068018;28;20208;-59
2022/06/08 06:02:27;;;;;;;4.95;1.15;;;35.70;59.60;;;;;;5068141;28;20197;-59
2022/06/08 06:04:54;;;;;;;4.15;0.95;;;36.40;56.50;;;;;;5054127;28;20608;-58
2022/06/08 06:07:20;;;;;;;2.50;1.00;;;36.60;54.90;;;;;;5054912;28;20209;-58
2022/06/08 06:09:47;;;;;;;3.05;1.13;;;37.20;53.10;;;;;;5054711;28;20612;-60
2022/06/08 06:12:15;;;;;;;5.15;1.00;;;37.50;52.00;;;;;;5054739;28;20287;-59
2022/06/08 06:14:42;;;;;;;3.88;0.80;;;37.40;51.20;;;;;;5054462;28;20592;-60
2022/06/08 06:17:09;;;;;;;4.28;1.15;;;37.90;50.40;;;;;;5054530;28;20263;-60
2022/06/08 06:19:37;;;;;;;3.65;0.98;;;38.40;48.20;;;;;;5054542;28;20209;-60
2022/06/08 06:22:04;;;;;;;2.97;1.05;;;39.00;48.10;;;;;;5054542;28;20205;-60
2022/06/08 06:24:31;;;;;;;4.72;1.40;;;39.50;46.50;;;;;;5055166;28;20236;-58
2022/06/08 06:26:58;;;;;;;3.83;1.00;;;39.10;46.20;;;;;;5054314;28;20692;-58
2022/06/08 06:29:25;;;;;;;1.98;1.02;;;39.10;46.10;;;;;;5054514;28;20302;-58
2022/06/08 06:31:55;;;;;;;2.88;1.08;;;39.00;45.90;;;;;;5054596;28;20229;-58
2022/06/08 06:34:24;;;;;;;2.47;1.08;;;39.10;46.10;;;;;;5053899;28;20236;-57
2022/06/08 06:36:53;;;;;;;2.75;1.00;;;39.40;45.00;;;;;;5054308;28;20209;-57
2022/06/08 06:39:20;;;;;;;2.05;1.10;;;39.30;44.80;;;;;;5054419;28;20210;-59
2022/06/08 06:41:47;;;;;;;3.00;1.10;;;38.90;44.70;;;;;;5054274;28;20623;-59
2022/06/08 06:44:14;;;;;;;3.13;1.40;;;38.50;45.40;;;;;;5053915;28;20240;-58
2022/06/08 06:46:40;;;;;;;3.08;1.13;;;38.40;45.30;;;;;;5054279;28;20217;-58
2022/06/08 06:49:07;;;;;;;5.35;1.08;;;38.70;45.30;;;;;;5053991;28;20209;-58
2022/06/08 06:51:35;;;;;;;2.63;1.33;;;39.00;44.80;;;;;;5054485;28;20237;-58
2022/06/08 06:54:03;;;;;;;2.55;0.90;;;39.00;44.70;;;;;;5053790;28;20279;-58
2022/06/08 06:56:30;;;;;;;3.60;1.13;;;39.50;43.80;;;;;;5054118;28;20680;-58
2022/06/08 06:58:57;;;;;;;2.50;1.10;;;40.30;43.10;;;;;;5054557;28;20209;-58
2022/06/08 07:01:24;;;;;;;3.55;1.27;;;41.00;41.60;;;;;;5054744;28;20216;-58
2022/06/08 07:03:50;;;;;;;4.07;1.05;;;41.80;40.60;;;;;;5053733;28;20208;-59
2022/06/08 07:06:17;;;;;;;16.00;1.83;;;41.30;40.80;;;;;;5053892;28;20220;-58
2022/06/08 07:08:45;;;;;;;9.27;1.88;;;40.40;41.60;;;;;;5054220;28;20677;-59
2022/06/08 07:13:59;;;;;;;5.13;2.50;;;40.50;42.30;;;;;;5056166;28;20306;-62
2022/06/08 07:16:26;;;;;;;3.83;1.25;;;41.10;40.50;;;;;;5045867;28;20216;-65
2022/06/08 07:18:53;;;;;;;4.82;2.70;;;41.20;40.50;;;;;;5042960;28;20200;-62
2022/06/08 07:21:19;;;;;;;2.83;1.70;;;41.70;40.30;;;;;;5054595;28;20220;-62
2022/06/08 07:23:47;;;;;;;4.22;1.33;;;41.90;39.70;;;;;;5053587;28;20211;-62
2022/06/08 07:26:17;;;;;;;4.95;2.00;;;42.30;38.80;;;;;;5050839;28;20213;-63
2022/06/08 07:28:44;;;;;;;2.15;1.05;;;42.40;39.10;;;;;;5035120;28;20215;-63
2022/06/08 07:31:13;;;;;;;3.85;1.83;;;42.40;38.40;;;;;;5035006;28;20718;-61
2022/06/08 07:33:40;;;;;;;5.47;1.45;;;42.40;38.70;;;;;;5034186;28;20232;-62
2022/06/08 07:36:08;;;;;;;3.30;2.03;;;42.50;38.60;;;;;;5034301;28;20206;-63
2022/06/08 07:38:35;;;;;;;6.43;1.55;;;42.70;38.50;;;;;;5034575;28;20220;-62
2022/06/08 07:41:02;;;;;;;7.90;4.97;;;42.70;37.60;;;;;;5034180;28;20228;-62
2022/06/08 07:43:30;;;;;;;3.97;2.50;;;42.70;37.20;;;;;;5033945;28;20209;-62
2022/06/08 07:45:56;;;;;;;5.07;2.03;;;42.40;37.40;;;;;;5033783;28;20442;-62
2022/06/08 07:51:07;;;;;;;3.08;1.70;;;42.00;37.70;;;;;;5033670;28;20282;-63
2022/06/08 07:53:35;;;;;;;3.42;1.17;;;41.70;38.10;;;;;;5032919;28;20553;-62
2022/06/08 07:56:01;;;;;;;6.25;1.20;;;41.70;37.90;;;;;;5033517;28;20277;-64
2022/06/08 07:58:30;;;;;;;4.13;1.17;;;41.60;37.60;;;;;;5033607;28;20201;-63
2022/06/08 08:00:57;;;;;;;2.28;1.20;;;41.50;38.30;;;;;;5033379;28;20206;-63
2022/06/08 08:03:25;;;;;;;2.85;0.90;;;41.50;37.60;;;;;;5033529;28;20375;-63
2022/06/08 08:05:52;;;;;;;2.22;0.75;;;41.70;37.60;;;;;;5033031;28;20269;-64
2022/06/08 08:08:19;;;;;;;3.42;1.30;;;41.90;36.90;;;;;;5033035;28;20216;-62
2022/06/08 08:10:47;;;;;;;1.92;1.02;;;41.90;37.00;;;;;;5033687;28;20213;-63
2022/06/08 08:13:15;;;;;;;2.60;1.20;;;42.10;36.80;;;;;;5033549;28;20240;-63
2022/06/08 08:15:44;;;;;;;4.50;1.13;;;42.20;36.50;;;;;;5033031;28;20714;-63
2022/06/08 08:18:11;;;;;;;2.47;1.20;;;42.60;36.40;;;;;;5033274;28;20607;-62
2022/06/08 08:20:38;;;;;;;4.20;1.13;;;42.80;35.70;;;;;;5033220;28;20202;-63
2022/06/08 08:23:06;;;;;;;4.05;1.15;;;42.70;35.90;;;;;;5033126;28;20228;-64
2022/06/08 08:25:33;;;;;;;2.20;0.82;;;42.60;36.30;;;;;;5033859;28;20587;-62
2022/06/08 08:28:00;;;;;;;2.83;1.13;;;42.30;36.60;;;;;;5033027;28;20217;-62
2022/06/08 08:30:29;;;;;;;3.03;1.00;;;41.50;37.00;;;;;;5033443;28;20209;-63
2022/06/08 08:32:57;;;;;;;3.30;1.00;;;41.30;36.90;;;;;;5033240;28;20218;-60
2022/06/08 08:35:24;;;;;;;5.50;1.30;;;41.40;37.00;;;;;;5032671;28;20607;-61
2022/06/08 08:37:53;;;;;;;3.17;1.08;;;41.80;36.70;;;;;;5033134;28;20209;-61
2022/06/08 08:40:30;;;;;;;5.00;1.13;;;42.00;36.90;;;;;;5030794;28;20272;-64
2022/06/08 08:42:58;;;;;;;2.15;0.95;;;42.20;36.40;;;;;;5030917;28;20280;-63
2022/06/08 08:45:25;;;;;;;2.10;1.00;;;41.90;36.00;;;;;;5033607;28;20233;-62
2022/06/08 08:48:03;;;;;;;4.28;0.95;;;41.20;37.30;;;;;;5033574;28;20331;-62
2022/06/08 08:50:35;;;;;;;4.72;0.93;;;40.00;38.90;;;;;;5051405;28;20209;-61
2022/06/08 08:53:11;;;;;;;2.92;1.23;;;38.60;40.10;;;;;;5032829;28;20221;-62
2022/06/08 08:55:46;;;;;;;2.33;1.10;;;37.00;41.50;;;;;;5032475;28;20226;-61
2022/06/08 08:58:16;;;;;;;1.60;0.98;;;35.60;42.60;;;;;;5033147;28;20218;-61
2022/06/08 09:00:45;;;;;;;3.60;1.13;;;34.30;45.00;;;;;;5031809;28;20704;-60
2022/06/08 09:03:29;;;;;;;3.35;0.73;;;33.00;46.30;;;;;;5031804;28;20198;-63
2022/06/08 09:05:59;;;;;;;3.08;0.93;;;31.90;47.40;;;;;;5031979;28;20238;-63
2022/06/08 09:08:27;;;;;;;3.45;1.15;;;31.00;48.50;;;;;;5031228;28;20207;-62
2022/06/08 09:10:58;;;;;;;4.35;1.30;;;30.30;50.60;;;;;;5032104;28;20209;-62
2022/06/08 09:13:30;;;;;;;5.28;1.20;;;29.60;52.20;;;;;;5032675;28;20226;-61
2022/06/08 09:16:00;;;;;;;4.57;1.27;;;29.10;53.30;;;;;;5031397;28;20220;-62
2022/06/08 09:18:36;;;;;;;4.25;1.10;;;28.70;53.60;;;;;;5031772;28;20236;-63
2022/06/08 09:21:26;;;;;;;3.67;1.02;;;28.20;53.60;;;;;;5031883;28;20206;-63
2022/06/08 09:23:55;;;;;;;4.18;1.10;;;27.80;54.20;;;;;;5030270;28;20226;-62
2022/06/08 09:26:35;;;;;;;4.45;1.40;;;27.50;53.00;;;;;;5036278;28;20232;-62
2022/06/08 09:29:10;;;;;;;3.25;1.10;;;27.40;55.00;;;;;;5048782;28;20213;-63
2022/06/08 09:31:38;;;;;;;3.75;1.13;;;27.20;55.30;;;;;;5032136;28;20674;-64
2022/06/08 09:34:16;;;;;;;2.80;1.27;;;27.20;54.50;;;;;;5031925;28;20688;-63
2022/06/08 09:36:44;;;;;;;5.40;1.20;;;27.10;53.40;;;;;;5030969;28;20210;-62
2022/06/08 09:39:13;;;;;;;3.67;1.00;;;26.70;54.60;;;;;;5035314;28;20206;-65
2022/06/08 09:41:47;;;;;;;3.97;1.10;;;26.60;54.90;;;;;;5041049;28;20225;-63
2022/06/08 09:44:29;;;;;;;5.18;1.38;;;26.50;54.60;;;;;;5043172;28;20253;-62
2022/06/08 09:53:03;;;;;;;3.40;1.33;;;26.20;56.40;;;;;;5034568;28;20303;-62
2022/06/08 09:55:41;;;;;;;2.45;0.90;;;26.10;56.50;;;;;;5038675;28;20222;-64
2022/06/08 09:58:21;;;;;;;2.83;0.93;;;26.10;55.90;;;;;;5055241;28;20518;-62
2022/06/08 10:00:55;;;;;;;3.55;0.90;;;26.00;58.00;;;;;;5054037;28;20216;-61
2022/06/08 10:03:44;;;;;;;3.17;0.95;;;25.80;57.70;;;;;;5054630;28;20641;-61
2022/06/08 10:06:21;;;;;;;3.65;1.00;;;25.40;58.50;;;;;;5054777;28;20644;-62
2022/06/08 10:08:57;;;;;;;3.05;1.05;;;24.90;58.90;;;;;;5055418;28;20205;-62
2022/06/08 10:11:38;;;;;;;4.07;1.30;;;25.00;59.10;;;;;;5054466;28;20186;-62
2022/06/08 10:14:12;;;;;;;4.03;1.05;;;25.00;58.30;;;;;;5045612;28;20254;-63
2022/06/08 10:16:45;;;;;;;2.00;0.95;;;25.20;59.10;;;;;;5034913;28;20210;-65
2022/06/08 10:19:18;;;;;;;3.80;1.20;;;25.40;57.30;;;;;;5035384;28;20202;-65
2022/06/08 10:21:49;;;;;;;3.88;1.13;;;25.60;56.30;;;;;;5034807;28;20665;-62
2022/06/08 10:24:20;;;;;;;1.98;0.90;;;25.80;56.30;;;;;;5034201;28;20722;-62
2022/06/08 10:26:52;;;;;;;3.13;1.02;;;25.90;55.10;;;;;;5040384;28;20213;-62
2022/06/08 10:29:25;;;;;;;2.65;0.77;;;25.90;54.90;;;;;;5055097;28;20200;-62
2022/06/08 10:31:58;;;;;;;5.28;1.15;;;26.00;56.50;;;;;;5054170;28;20268;-63
2022/06/08 10:34:27;;;;;;;5.00;0.90;;;26.20;56.80;;;;;;5053540;28;20244;-62
2022/06/08 10:36:59;;;;;;;4.07;0.98;;;26.70;56.80;;;;;;5053933;28;20206;-63
2022/06/08 10:39:27;;;;;;;2.10;0.82;;;27.20;55.10;;;;;;5054509;28;20206;-63
2022/06/08 10:42:40;;;;;;;3.40;1.15;;;27.60;54.80;;;;;;5037701;28;20230;-63
2022/06/08 10:45:51;;;;;;;2.78;0.98;;;27.90;54.00;;;;;;5034216;28;20237;-63
2022/06/08 10:48:34;;;;;;;3.08;1.10;;;28.40;51.90;;;;;;5034449;28;20201;-62
2022/06/08 10:51:25;;;;;;;3.30;0.95;;;28.60;51.00;;;;;;5033900;28;20206;-62
2022/06/08 10:56:54;;;;;;;3.70;0.95;;;28.60;51.10;;;;;;5033431;28;20712;-62
2022/06/08 10:59:24;;;;;;;1.38;0.60;;;28.50;50.30;;;;;;5035228;28;20217;-61
2022/06/08 11:02:21;;;;;;;3.85;1.00;;;28.30;50.90;;;;;;5036925;28;20229;-63
2022/06/08 11:04:57;;;;;;;3.05;1.13;;;28.20;51.90;;;;;;5054201;28;20320;-64
2022/06/08 11:07:24;;;;;;;1.25;0.68;;;28.20;52.10;;;;;;5053946;28;20209;-62
2022/06/08 11:09:57;;;;;;;1.98;0.82;;;28.30;50.90;;;;;;5054759;28;20697;-61
2022/06/08 11:12:34;;;;;;;1.75;0.95;;;28.30;51.50;;;;;;5053640;28;20206;-64
2022/06/08 11:15:10;;;;;;;2.00;0.80;;;28.20;52.40;;;;;;5053493;28;20716;-62
2022/06/08 11:17:45;;;;;;;4.20;0.98;;;27.90;52.50;;;;;;5054715;28;20202;-63
2022/06/08 11:20:16;;;;;;;2.55;1.13;;;27.70;52.90;;;;;;5033315;28;20236;-61
2022/06/08 11:22:46;;;;;;;4.68;0.95;;;27.70;52.30;;;;;;5034034;28;20202;-60
2022/06/08 11:25:21;;;;;;;3.88;1.20;;;27.80;51.40;;;;;;5033874;28;20245;-61
2022/06/08 11:28:35;;;;;;;3.10;0.90;;;27.90;51.90;;;;;;5046125;28;20691;-61
2022/06/08 11:31:04;;;;;;;3.58;0.98;;;27.90;51.50;;;;;;5017022;28;20213;-63
2022/06/08 11:34:01;;;;;;;1.17;0.55;;;28.00;50.10;;;;;;5033277;28;20237;-65
2022/06/08 11:36:52;;;;;;;2.00;0.75;;;28.10;50.00;;;;;;5033335;28;20241;-62
2022/06/08 11:39:25;;;;;;;2.45;0.93;;;27.80;50.30;;;;;;5033351;28;20202;-62
2022/06/08 11:42:27;;;;;;;2.85;0.85;;;27.60;51.30;;;;;;5033993;28;20302;-63
2022/06/08 11:44:56;;;;;;;2.88;0.90;;;27.50;50.50;;;;;;5032004;28;20257;-62
2022/06/08 11:47:30;;;;;;;2.25;0.55;;;27.50;48.80;;;;;;5033054;28;20241;-63
2022/06/08 11:50:00;;;;;;;2.88;0.68;;;27.60;48.30;;;;;;5032848;28;20206;-61
2022/06/08 11:52:31;;;;;;;2.80;1.10;;;27.70;49.10;;;;;;5032026;28;20206;-60
2022/06/08 11:55:24;;;;;;;3.17;0.75;;;27.80;49.10;;;;;;5031566;28;20720;-61
2022/06/08 11:57:55;;;;;;;4.00;0.90;;;27.90;50.00;;;;;;5032894;28;20191;-63
2022/06/08 12:00:27;;;;;;;2.88;0.73;;;28.20;49.60;;;;;;5032922;28;20214;-62
2022/06/08 12:03:00;;;;;;;1.80;0.85;;;28.40;48.80;;;;;;5032383;28;20210;-62
2022/06/08 12:05:31;;;;;;;4.05;0.80;;;28.60;48.00;;;;;;5032691;28;20234;-61
2022/06/08 12:08:10;;;;;;;3.00;1.25;;;28.90;47.60;;;;;;5031848;28;20728;-62
2022/06/08 12:10:37;;;;;;;3.38;1.00;;;29.20;48.00;;;;;;5031661;28;20562;-61
2022/06/08 12:13:12;;;;;;;5.18;1.17;;;29.50;48.00;;;;;;5031970;28;20213;-62
2022/06/08 12:15:45;;;;;;;3.58;1.08;;;29.70;47.40;;;;;;5031429;28;20735;-64
2022/06/08 12:18:44;;;;;;;2.90;0.88;;;29.80;47.10;;;;;;5032307;28;20600;-63
2022/06/08 12:21:20;;;;;;;2.13;0.90;;;30.00;47.00;;;;;;5033110;28;20220;-62
2022/06/08 12:23:59;;;;;;;1.60;0.63;;;30.30;46.30;;;;;;5032141;28;20294;-62
2022/06/08 12:26:28;;;;;;;1.77;0.73;;;30.50;45.50;;;;;;5031370;28;20225;-63
2022/06/08 12:29:13;;;;;;;1.98;0.90;;;30.60;45.50;;;;;;5031764;28;20244;-62
2022/06/08 12:31:40;;;;;;;4.88;1.50;;;30.60;45.70;;;;;;5032867;28;20264;-63
2022/06/08 12:34:27;;;;;;;9.90;1.77;;;30.70;46.30;;;;;;5032472;28;20230;-63
2022/06/08 12:36:55;;;;;;;3.25;0.82;;;31.10;45.50;;;;;;5032405;28;20509;-63
2022/06/08 12:39:27;;;;;;;4.75;1.10;;;31.50;44.80;;;;;;5032454;28;20206;-62
2022/06/08 12:41:55;;;;;;;2.60;0.80;;;31.60;45.50;;;;;;5032170;28;20206;-63
2022/06/08 12:44:26;;;;;;;1.05;0.60;;;31.30;45.30;;;;;;5031840;28;20226;-62
2022/06/08 12:46:57;;;;;;;3.20;1.00;;;31.20;45.20;;;;;;5031503;28;20213;-62
2022/06/08 12:49:26;;;;;;;3.13;1.08;;;31.00;45.40;;;;;;5031786;28;20241;-62
2022/06/08 12:51:57;;;;;;;2.25;0.95;;;31.00;45.90;;;;;;5032150;28;20214;-62
2022/06/08 12:54:28;;;;;;;3.33;1.17;;;30.80;45.40;;;;;;5031161;28;20238;-62
2022/06/08 12:56:58;;;;;;;2.00;0.80;;;30.70;46.00;;;;;;5031576;28;20202;-62
2022/06/08 12:59:26;;;;;;;3.63;0.95;;;30.50;46.40;;;;;;5031174;28;20583;-62
2022/06/08 13:01:56;;;;;;;4.82;1.45;;;30.50;46.40;;;;;;5031408;28;20202;-62
2022/06/08 13:04:25;;;;;;;3.22;1.05;;;30.60;46.30;;;;;;5030275;28;20721;-62
2022/06/08 13:06:52;;;;;;;2.53;1.70;;;30.50;46.30;;;;;;5031557;28;20252;-62
2022/06/08 13:09:20;;;;;;;1.80;0.95;;;30.20;46.00;;;;;;5031448;28;20206;-63
2022/06/08 13:11:49;;;;;;;2.70;1.17;;;30.10;47.00;;;;;;5031078;28;20209;-62
2022/06/08 13:14:19;;;;;;;3.47;1.70;;;30.00;47.10;;;;;;5033262;28;20237;-62
2022/06/08 13:16:47;;;;;;;1.95;1.08;;;29.80;47.30;;;;;;5035250;28;20210;-61
2022/06/08 13:19:16;;;;;;;4.10;1.20;;;29.60;47.20;;;;;;5035350;28;20224;-62
2022/06/08 13:21:45;;;;;;;2.67;1.05;;;29.60;46.80;;;;;;5035221;28;20317;-63